createdAt,value
2022-07-25T00:01:05.064Z,66.36
2022-07-25T00:03:35.937Z,65.74
2022-07-25T00:06:07.324Z,67.49
2022-07-25T00:08:41.195Z,67.96
2022-07-25T00:11:09.054Z,67.70
2022-07-25T00:13:36.635Z,68.19
2022-07-25T00:16:04.372Z,68.42
2022-07-25T00:18:31.992Z,68.10
2022-07-25T00:21:00.968Z,68.18
2022-07-25T00:23:28.593Z,68.32
2022-07-25T00:25:56.176Z,68.54
2022-07-25T00:28:23.760Z,69.81
2022-07-25T00:30:51.381Z,69.60
2022-07-25T00:33:19.011Z,69.74
2022-07-25T00:35:46.611Z,69.89
2022-07-25T00:38:15.560Z,70.85
2022-07-25T00:40:43.169Z,70.41
2022-07-25T00:43:10.771Z,70.58
2022-07-25T00:45:38.447Z,72.50
2022-07-25T00:48:07.404Z,71.23
2022-07-25T00:50:35.042Z,71.80
2022-07-25T00:53:02.689Z,71.45
2022-07-25T00:55:33.688Z,72.71
2022-07-25T00:58:01.555Z,73.72
2022-07-25T01:00:29.291Z,73.94
2022-07-25T01:02:58.372Z,74.05
2022-07-25T01:05:26.116Z,74.70
2022-07-25T01:07:54.163Z,75.49
2022-07-25T01:10:21.782Z,76.21
2022-07-25T01:12:52.702Z,76.69
2022-07-25T01:15:20.741Z,78.10
2022-07-25T01:17:49.110Z,79.43
2022-07-25T01:20:18.887Z,80.44
2022-07-25T01:22:47.072Z,83.10
2022-07-25T01:25:15.882Z,87.28
2022-07-25T01:27:44.152Z,88.94
2022-07-25T01:30:14.421Z,86.91
2022-07-25T01:32:42.889Z,84.91
2022-07-25T01:35:12.056Z,86.00
2022-07-25T01:37:41.245Z,87.28
2022-07-25T01:40:14.581Z,88.16
2022-07-25T01:42:42.683Z,86.38
2022-07-25T01:45:11.610Z,87.89
2022-07-25T01:47:39.535Z,86.75
2022-07-25T01:50:08.392Z,86.47
2022-07-25T01:52:37.036Z,85.73
2022-07-25T01:55:07.026Z,87.09
2022-07-25T01:57:36.119Z,87.16
2022-07-25T02:00:05.358Z,87.40
2022-07-25T02:02:33.037Z,87.67
2022-07-25T02:05:00.710Z,86.82
2022-07-25T02:07:28.373Z,87.54
2022-07-25T02:09:56.984Z,89.12
2022-07-25T02:12:26.229Z,88.28
2022-07-25T02:14:53.847Z,88.03
2022-07-25T02:17:21.548Z,88.33
2022-07-25T02:19:49.208Z,88.23
2022-07-25T02:22:16.844Z,88.99
2022-07-25T02:24:44.517Z,93.22
2022-07-25T02:27:12.124Z,91.26
2022-07-25T02:29:41.133Z,91.76
2022-07-25T02:32:09.218Z,91.78
2022-07-25T02:34:36.846Z,92.41
2022-07-25T02:37:04.459Z,93.69
2022-07-25T02:39:32.094Z,94.02
2022-07-25T02:41:59.684Z,96.33
2022-07-25T02:44:27.278Z,95.46
2022-07-25T02:46:56.231Z,96.30
2022-07-25T02:49:23.804Z,95.94
2022-07-25T02:51:51.370Z,95.78
2022-07-25T02:54:20.076Z,95.52
2022-07-25T02:56:47.690Z,95.89
2022-07-25T02:59:15.272Z,96.12
2022-07-25T03:01:43.006Z,95.28
2022-07-25T03:04:12.106Z,95.54
2022-07-25T03:06:42.723Z,96.78
2022-07-25T03:09:10.316Z,96.09
2022-07-25T03:11:37.927Z,94.48
2022-07-25T03:14:05.817Z,94.92
2022-07-25T03:16:33.663Z,94.42
2022-07-25T03:19:01.329Z,94.82
2022-07-25T03:21:30.281Z,94.02
2022-07-25T03:23:57.857Z,94.90
2022-07-25T03:26:25.686Z,95.15
2022-07-25T03:28:53.278Z,94.85
2022-07-25T03:31:20.912Z,95.10
2022-07-25T03:33:48.494Z,95.08
2022-07-25T03:36:16.057Z,96.04
2022-07-25T03:38:45.021Z,97.51
2022-07-25T03:41:13.179Z,96.46
2022-07-25T03:43:40.830Z,96.70
2022-07-25T03:46:08.534Z,97.82
2022-07-25T03:48:36.311Z,98.76
2022-07-25T03:51:07.029Z,97.44
2022-07-25T03:53:54.952Z,98.23
2022-07-25T03:56:23.942Z,98.15
2022-07-25T03:58:51.554Z,98.68
2022-07-25T04:01:19.334Z,99.93
2022-07-25T04:03:47.437Z,98.11
2022-07-25T04:06:15.078Z,98.81
2022-07-25T04:08:42.740Z,99.59
2022-07-25T04:11:10.328Z,100.00
2022-07-25T04:13:39.283Z,100.00
2022-07-25T04:16:11.524Z,100.00
2022-07-25T04:18:42.161Z,100.00
2022-07-25T04:21:11.675Z,100.00
2022-07-25T04:23:39.326Z,100.00
2022-07-25T04:26:07.231Z,100.00
2022-07-25T04:28:35.391Z,100.00
2022-07-25T04:31:04.712Z,100.00
2022-07-25T04:33:32.336Z,100.00
2022-07-25T04:36:00.232Z,100.00
2022-07-25T04:38:27.856Z,100.00
2022-07-25T04:40:55.440Z,100.00
2022-07-25T04:43:23.337Z,100.00
2022-07-25T04:45:51.013Z,100.00
2022-07-25T04:48:19.998Z,100.00
2022-07-25T04:50:47.623Z,100.00
2022-07-25T04:53:15.216Z,100.00
2022-07-25T04:55:42.823Z,100.00
2022-07-25T04:58:10.416Z,100.00
2022-07-25T05:00:38.259Z,100.00
2022-07-25T05:03:05.954Z,100.00
2022-07-25T05:05:35.834Z,100.00
2022-07-25T05:08:03.831Z,100.00
2022-07-25T05:10:31.654Z,100.00
2022-07-25T05:12:59.225Z,100.00
2022-07-25T05:15:26.971Z,100.00
2022-07-25T05:17:54.542Z,100.00
2022-07-25T05:20:22.277Z,100.00
2022-07-25T05:22:51.812Z,100.00
2022-07-25T05:25:19.570Z,100.00
2022-07-25T05:27:47.538Z,100.00
2022-07-25T05:30:15.627Z,100.00
2022-07-25T05:32:43.367Z,100.00
2022-07-25T05:35:11.346Z,100.00
2022-07-25T05:37:39.217Z,100.00
2022-07-25T05:40:09.234Z,100.00
2022-07-25T05:42:36.957Z,100.00
2022-07-25T05:45:05.207Z,100.00
2022-07-25T05:47:32.871Z,100.00
2022-07-25T05:50:00.452Z,100.00
2022-07-25T05:52:28.095Z,98.31
2022-07-25T05:54:55.755Z,96.39
2022-07-25T05:57:24.811Z,95.11
2022-07-25T05:59:52.557Z,94.21
2022-07-25T06:02:20.359Z,95.12
2022-07-25T06:04:48.016Z,96.38
2022-07-25T06:07:16.801Z,96.46
2022-07-25T06:09:44.933Z,95.55
2022-07-25T06:12:14.028Z,93.43
2022-07-25T06:14:43.049Z,92.30
2022-07-25T06:17:10.677Z,91.36
2022-07-25T06:19:38.330Z,89.45
2022-07-25T06:22:05.989Z,86.44
2022-07-25T06:24:33.580Z,86.62
2022-07-25T06:27:01.871Z,85.63
2022-07-25T06:29:29.480Z,83.54
2022-07-25T06:31:58.535Z,84.56
2022-07-25T06:34:28.780Z,83.79
2022-07-25T06:36:57.491Z,82.49
2022-07-25T06:39:25.366Z,82.36
2022-07-25T06:41:53.009Z,80.42
2022-07-25T06:44:20.682Z,78.75
2022-07-25T06:46:48.376Z,78.93
2022-07-25T06:49:19.226Z,76.46
2022-07-25T06:51:46.893Z,76.04
2022-07-25T06:54:15.616Z,74.85
2022-07-25T06:56:43.265Z,74.62
2022-07-25T06:59:10.884Z,72.27
2022-07-25T07:01:38.897Z,70.44
2022-07-25T07:04:07.058Z,70.55
2022-07-25T07:06:36.615Z,67.72
2022-07-25T07:09:04.479Z,67.00
2022-07-25T07:11:32.145Z,65.74
2022-07-25T07:14:00.022Z,64.66
2022-07-25T07:16:27.952Z,60.88
2022-07-25T07:18:55.678Z,65.42
2022-07-25T07:21:23.413Z,65.17
2022-07-25T07:23:53.747Z,65.32
2022-07-25T07:26:21.732Z,64.75
2022-07-25T07:28:49.369Z,63.23
2022-07-25T07:31:17.998Z,63.26
2022-07-25T07:33:45.978Z,62.64
2022-07-25T07:36:13.690Z,60.83
2022-07-25T07:38:41.595Z,59.36
2022-07-25T07:41:10.518Z,58.38
2022-07-25T07:43:38.169Z,57.39
2022-07-25T07:46:06.277Z,56.84
2022-07-25T07:48:34.503Z,57.59
2022-07-25T07:51:02.878Z,56.42
2022-07-25T07:53:45.172Z,54.80
2022-07-25T07:56:14.260Z,54.07
2022-07-25T07:58:41.846Z,53.01
2022-07-25T08:01:09.487Z,54.20
2022-07-25T08:03:37.362Z,54.26
2022-07-25T08:06:05.391Z,50.65
2022-07-25T08:08:32.998Z,53.02
2022-07-25T08:11:00.716Z,52.19
2022-07-25T08:13:31.682Z,50.85
2022-07-25T08:16:03.358Z,49.00
2022-07-25T08:18:32.704Z,50.09
2022-07-25T08:21:02.907Z,46.12
2022-07-25T08:23:31.837Z,49.20
2022-07-25T08:25:59.490Z,47.35
2022-07-25T08:28:27.200Z,48.54
2022-07-25T08:30:56.369Z,47.33
2022-07-25T08:33:24.106Z,48.54
2022-07-25T08:35:54.501Z,44.90
2022-07-25T08:38:22.764Z,46.64
2022-07-25T08:40:50.804Z,44.67
2022-07-25T08:43:19.065Z,40.99
2022-07-25T08:45:47.912Z,41.58
2022-07-25T08:48:18.753Z,40.42
2022-07-25T08:50:47.643Z,43.16
2022-07-25T08:53:32.666Z,45.48
2022-07-25T08:56:05.363Z,42.51
2022-07-25T08:58:37.967Z,42.96
2022-07-25T09:01:05.747Z,41.40
2022-07-25T09:03:36.161Z,42.91
2022-07-25T09:06:14.875Z,42.92
2022-07-25T09:08:52.288Z,43.71
2022-07-25T09:11:30.665Z,40.92
2022-07-25T09:14:03.075Z,42.33
2022-07-25T09:16:35.269Z,41.30
2022-07-25T09:19:15.090Z,41.23
2022-07-25T09:21:44.761Z,43.67
2022-07-25T09:24:15.996Z,39.83
2022-07-25T09:26:45.422Z,42.14
2022-07-25T09:29:18.209Z,39.82
2022-07-25T09:31:46.060Z,41.67
2022-07-25T09:34:25.528Z,38.77
2022-07-25T09:36:54.633Z,37.08
2022-07-25T09:39:23.539Z,37.38
2022-07-25T09:41:51.139Z,40.08
2022-07-25T09:44:19.125Z,35.54
2022-07-25T09:46:47.498Z,34.74
2022-07-25T09:49:16.592Z,38.54
2022-07-25T09:51:44.404Z,33.63
2022-07-25T09:54:12.092Z,38.25
2022-07-25T09:56:39.698Z,36.63
2022-07-25T09:59:07.535Z,35.34
2022-07-25T10:01:37.305Z,32.48
2022-07-25T10:04:13.297Z,32.88
2022-07-25T10:06:49.800Z,30.23
2022-07-25T10:09:17.982Z,34.19
2022-07-25T10:12:06.927Z,28.95
2022-07-25T10:14:34.710Z,28.87
2022-07-25T10:17:02.569Z,27.49
2022-07-25T10:19:45.883Z,30.52
2022-07-25T10:22:29.442Z,30.34
2022-07-25T10:25:13.262Z,29.05
2022-07-25T10:27:48.550Z,29.10
2022-07-25T10:30:21.329Z,28.90
2022-07-25T10:32:52.651Z,29.22
2022-07-25T10:35:20.391Z,31.50
2022-07-25T10:37:51.930Z,27.54
2022-07-25T10:40:26.813Z,27.89
2022-07-25T10:42:58.407Z,26.66
2022-07-25T10:45:27.875Z,24.31
2022-07-25T10:47:56.059Z,28.87
2022-07-25T10:50:46.130Z,24.20
2022-07-25T10:53:13.194Z,25.53
2022-07-25T10:55:40.801Z,27.98
2022-07-25T10:58:17.667Z,26.15
2022-07-25T11:00:45.915Z,25.10
2022-07-25T11:03:18.157Z,29.06
2022-07-25T11:05:47.093Z,23.80
2022-07-25T11:08:22.141Z,28.46
2022-07-25T11:10:52.772Z,23.53
2022-07-25T11:13:20.472Z,25.37
2022-07-25T11:15:48.464Z,23.08
2022-07-25T11:18:18.416Z,25.46
2022-07-25T11:20:46.169Z,28.62
2022-07-25T11:23:23.780Z,24.16
2022-07-25T11:25:51.741Z,25.64
2022-07-25T11:28:19.364Z,26.57
2022-07-25T11:30:47.504Z,25.11
2022-07-25T11:33:17.706Z,25.01
2022-07-25T11:35:45.529Z,26.85
2022-07-25T11:38:15.070Z,23.50
2022-07-25T11:40:45.366Z,26.02
2022-07-25T11:43:20.707Z,24.29
2022-07-25T11:45:57.587Z,23.79
2022-07-25T11:48:32.342Z,23.95
2022-07-25T11:51:00.037Z,24.21
2022-07-25T11:53:27.789Z,26.10
2022-07-25T11:55:57.053Z,24.88
2022-07-25T11:58:25.534Z,25.98
2022-07-25T12:00:53.138Z,23.26
2022-07-25T12:03:21.744Z,23.22
2022-07-25T12:05:50.428Z,25.00
2022-07-25T12:08:19.304Z,23.92
2022-07-25T12:10:49.217Z,22.76
2022-07-25T12:13:25.023Z,24.15
2022-07-25T12:15:52.825Z,26.41
2022-07-25T12:18:20.458Z,23.89
2022-07-25T12:20:48.104Z,25.48
2022-07-25T12:23:15.769Z,25.36
2022-07-25T12:25:45.373Z,24.21
2022-07-25T12:28:13.393Z,22.60
2022-07-25T12:30:44.449Z,24.12
2022-07-25T12:33:12.910Z,25.82
2022-07-25T12:35:41.328Z,25.83
2022-07-25T12:38:11.021Z,24.98
2022-07-25T12:40:38.925Z,25.73
2022-07-25T12:43:06.908Z,24.12
2022-07-25T12:45:34.738Z,22.77
2022-07-25T12:48:04.038Z,26.71
2022-07-25T12:50:31.715Z,25.01
2022-07-25T12:52:59.399Z,25.13
2022-07-25T12:55:27.049Z,24.26
2022-07-25T12:57:55.130Z,23.98
2022-07-25T13:00:24.169Z,23.49
2022-07-25T13:02:53.226Z,24.66
2022-07-25T13:05:22.853Z,23.36
2022-07-25T13:07:50.940Z,24.15
2022-07-25T13:10:19.508Z,23.70
2022-07-25T13:12:47.611Z,24.16
2022-07-25T13:15:15.497Z,22.86
2022-07-25T13:17:43.108Z,23.76
2022-07-25T13:20:11.976Z,23.78
2022-07-25T13:22:40.939Z,25.42
2022-07-25T13:25:09.099Z,22.22
2022-07-25T13:27:38.278Z,23.44
2022-07-25T13:30:08.228Z,24.50
2022-07-25T13:32:36.709Z,22.95
2022-07-25T13:35:05.342Z,24.78
2022-07-25T13:37:33.240Z,24.60
2022-07-25T13:40:02.159Z,23.26
2022-07-25T13:42:29.763Z,24.35
2022-07-25T13:44:57.513Z,24.53
2022-07-25T13:47:30.163Z,25.98
2022-07-25T13:49:58.160Z,24.16
2022-07-25T13:52:25.808Z,23.91
2022-07-25T13:54:53.423Z,23.69
2022-07-25T13:57:22.373Z,24.12
2022-07-25T13:59:49.975Z,25.07
2022-07-25T14:02:19.933Z,22.32
2022-07-25T14:04:47.576Z,24.35
2022-07-25T14:07:15.272Z,23.03
2022-07-25T14:09:42.889Z,25.11
2022-07-25T14:12:10.866Z,24.52
2022-07-25T14:14:40.679Z,25.71
2022-07-25T14:17:08.426Z,23.58
2022-07-25T14:19:36.045Z,25.44
2022-07-25T14:22:03.764Z,24.36
2022-07-25T14:24:31.536Z,24.61
2022-07-25T14:27:00.537Z,24.19
2022-07-25T14:29:30.562Z,24.82
2022-07-25T14:31:59.964Z,24.15
2022-07-25T14:34:27.780Z,24.63
2022-07-25T14:36:55.421Z,25.62
2022-07-25T14:39:23.617Z,24.36
2022-07-25T14:41:52.806Z,23.76
2022-07-25T14:44:21.897Z,25.37
2022-07-25T14:46:50.312Z,24.43
2022-07-25T14:49:19.386Z,24.41
2022-07-25T14:51:47.432Z,24.84
2022-07-25T14:54:15.175Z,24.61
2022-07-25T14:56:45.335Z,24.14
2022-07-25T14:59:13.008Z,22.95
2022-07-25T15:01:41.298Z,24.06
2022-07-25T15:04:09.009Z,23.41
2022-07-25T15:06:38.303Z,24.16
2022-07-25T15:09:06.577Z,24.42
2022-07-25T15:11:34.526Z,25.55
2022-07-25T15:14:02.244Z,24.17
2022-07-25T15:16:30.154Z,24.45
2022-07-25T15:19:15.904Z,24.84
2022-07-25T15:21:46.350Z,24.14
2022-07-25T15:24:14.286Z,23.32
2022-07-25T15:26:42.212Z,24.40
2022-07-25T15:29:11.258Z,23.89
2022-07-25T15:31:39.269Z,24.39
2022-07-25T15:34:06.933Z,24.22
2022-07-25T15:36:34.572Z,24.47
2022-07-25T15:39:04.017Z,25.04
2022-07-25T15:41:32.141Z,23.94
2022-07-25T15:44:00.374Z,23.16
2022-07-25T15:46:29.013Z,22.50
2022-07-25T15:48:57.805Z,24.00
2022-07-25T15:51:25.547Z,21.30
2022-07-25T15:53:53.167Z,21.96
2022-07-25T15:56:22.317Z,22.52
2022-07-25T15:58:50.971Z,24.30
2022-07-25T16:01:18.789Z,22.24
2022-07-25T16:03:46.885Z,23.53
2022-07-25T16:06:18.777Z,24.48
2022-07-25T16:08:46.714Z,23.31
2022-07-25T16:11:14.365Z,23.66
2022-07-25T16:13:43.394Z,23.12
2022-07-25T16:16:11.221Z,24.41
2022-07-25T16:18:38.908Z,23.73
2022-07-25T16:21:07.028Z,25.25
2022-07-25T16:23:38.972Z,25.29
2022-07-25T16:26:08.583Z,25.32
2022-07-25T16:28:37.212Z,25.13
2022-07-25T16:31:06.773Z,24.85
2022-07-25T16:33:34.644Z,26.09
2022-07-25T16:36:02.270Z,25.24
2022-07-25T16:38:30.057Z,25.30
2022-07-25T16:40:57.815Z,26.16
2022-07-25T16:43:25.477Z,26.16
2022-07-25T16:45:53.134Z,26.16
2022-07-25T16:48:22.085Z,26.08
2022-07-25T16:50:49.721Z,26.70
2022-07-25T16:53:17.589Z,27.07
2022-07-25T16:55:45.333Z,26.90
2022-07-25T16:58:12.964Z,27.27
2022-07-25T17:00:41.978Z,27.32
2022-07-25T17:03:09.856Z,27.69
2022-07-25T17:05:39.052Z,27.94
2022-07-25T17:08:06.699Z,28.14
2022-07-25T17:10:34.556Z,28.25
2022-07-25T17:13:02.283Z,28.27
2022-07-25T17:15:30.071Z,28.63
2022-07-25T17:17:58.466Z,29.68
2022-07-25T17:20:26.496Z,29.18
2022-07-25T17:22:55.669Z,29.21
2022-07-25T17:25:23.610Z,29.12
2022-07-25T17:27:51.260Z,28.92
2022-07-25T17:30:18.902Z,29.63
2022-07-25T17:32:46.836Z,30.34
2022-07-25T17:35:14.739Z,30.13
2022-07-25T17:37:42.878Z,29.93
2022-07-25T17:40:12.562Z,30.02
2022-07-25T17:42:44.898Z,29.85
2022-07-25T17:45:13.482Z,29.92
2022-07-25T17:47:41.587Z,30.19
2022-07-25T17:50:10.343Z,30.65
2022-07-25T17:52:38.443Z,30.72
2022-07-25T17:55:06.965Z,31.13
2022-07-25T17:57:36.941Z,31.20
2022-07-25T18:00:05.652Z,31.79
2022-07-25T18:02:33.397Z,31.01
2022-07-25T18:05:01.185Z,31.35
2022-07-25T18:07:28.995Z,31.65
2022-07-25T18:09:56.814Z,31.55
2022-07-25T18:12:29.475Z,31.63
2022-07-25T18:14:58.829Z,32.27
2022-07-25T18:17:26.682Z,32.63
2022-07-25T18:19:54.447Z,32.18
2022-07-25T18:22:22.164Z,32.06
2022-07-25T18:24:49.899Z,32.11
2022-07-25T18:27:18.043Z,32.37
2022-07-25T18:29:46.066Z,33.14
2022-07-25T18:32:15.101Z,33.33
2022-07-25T18:34:42.830Z,33.43
2022-07-25T18:37:11.161Z,33.69
2022-07-25T18:39:38.853Z,33.95
2022-07-25T18:42:06.658Z,34.01
2022-07-25T18:44:34.426Z,33.93
2022-07-25T18:47:02.084Z,34.32
2022-07-25T18:49:31.195Z,34.69
2022-07-25T18:51:58.904Z,34.82
2022-07-25T18:54:26.898Z,34.56
2022-07-25T18:56:54.725Z,35.22
2022-07-25T18:59:24.075Z,35.06
2022-07-25T19:01:53.232Z,35.44
2022-07-25T19:04:21.067Z,34.73
2022-07-25T19:06:50.185Z,34.92
2022-07-25T19:09:17.984Z,35.13
2022-07-25T19:11:45.929Z,35.14
2022-07-25T19:14:13.905Z,36.78
2022-07-25T19:16:41.764Z,35.66
2022-07-25T19:19:09.979Z,36.01
2022-07-25T19:21:37.839Z,36.34
2022-07-25T19:24:07.950Z,36.78
2022-07-25T19:26:35.866Z,36.57
2022-07-25T19:29:03.473Z,37.07
2022-07-25T19:31:31.181Z,37.29
2022-07-25T19:33:58.888Z,39.07
2022-07-25T19:36:26.524Z,37.69
2022-07-25T19:38:54.097Z,37.72
2022-07-25T19:41:23.168Z,38.30
2022-07-25T19:43:52.168Z,38.17
2022-07-25T19:46:19.921Z,42.95
2022-07-25T19:48:47.654Z,52.35
2022-07-25T19:51:15.380Z,57.95
2022-07-25T19:53:42.991Z,72.41
2022-07-25T19:56:10.644Z,75.35
2022-07-25T19:58:41.187Z,65.51
2022-07-25T20:01:11.579Z,72.09
2022-07-25T20:03:39.295Z,69.27
2022-07-25T20:06:08.451Z,73.52
2022-07-25T20:08:36.535Z,78.47
2022-07-25T20:11:04.322Z,87.03
2022-07-25T20:13:34.496Z,83.05
2022-07-25T20:16:04.044Z,78.64
2022-07-25T20:18:34.682Z,79.65
2022-07-25T20:21:02.830Z,81.81
2022-07-25T20:23:37.034Z,80.38
2022-07-25T20:26:06.063Z,85.43
2022-07-25T20:28:33.730Z,93.09
2022-07-25T20:31:02.788Z,83.10
2022-07-25T20:33:30.737Z,79.05
2022-07-25T20:35:59.261Z,91.31
2022-07-25T20:38:30.273Z,95.42
2022-07-25T20:40:58.360Z,94.49
2022-07-25T20:43:26.329Z,89.81
2022-07-25T20:45:54.883Z,92.47
2022-07-25T20:48:24.067Z,93.84
2022-07-25T20:50:52.004Z,91.66
2022-07-25T20:53:20.009Z,94.46
2022-07-25T20:55:47.640Z,96.93
2022-07-25T20:58:15.439Z,97.43
2022-07-25T21:00:43.245Z,92.28
2022-07-25T21:03:11.002Z,93.57
2022-07-25T21:05:41.971Z,99.69
2022-07-25T21:08:10.983Z,100.00
2022-07-25T21:10:39.439Z,100.00
2022-07-25T21:13:07.099Z,99.60
2022-07-25T21:15:35.485Z,100.00
2022-07-25T21:18:03.118Z,100.00
2022-07-25T21:20:31.023Z,100.00
2022-07-25T21:23:00.078Z,100.00
2022-07-25T21:25:27.837Z,100.00
2022-07-25T21:27:55.445Z,100.00
2022-07-25T21:30:23.128Z,99.71
2022-07-25T21:32:50.817Z,98.92
2022-07-25T21:35:19.170Z,100.00
2022-07-25T21:37:47.171Z,100.00
2022-07-25T21:40:16.452Z,92.93
2022-07-25T21:42:44.240Z,96.25
2022-07-25T21:45:12.622Z,91.59
2022-07-25T21:47:40.158Z,100.00
2022-07-25T21:50:25.790Z,96.18
2022-07-25T21:52:53.497Z,100.00
2022-07-25T21:55:22.960Z,100.00
2022-07-25T21:57:51.268Z,100.00
2022-07-25T22:00:20.035Z,98.68
2022-07-25T22:02:48.321Z,100.00
2022-07-25T22:05:17.291Z,100.00
2022-07-25T22:07:47.141Z,100.00
2022-07-25T22:10:15.823Z,100.00
2022-07-25T22:12:44.886Z,100.00
2022-07-25T22:15:13.635Z,100.00
2022-07-25T22:17:49.020Z,100.00
2022-07-25T22:20:17.855Z,100.00
2022-07-25T22:22:45.439Z,100.00
2022-07-25T22:25:13.154Z,100.00
2022-07-25T22:27:40.739Z,100.00
2022-07-25T22:30:16.464Z,100.00
2022-07-25T22:32:46.803Z,100.00
2022-07-25T22:35:14.482Z,100.00
2022-07-25T22:37:42.104Z,100.00
2022-07-25T22:40:10.362Z,100.00
2022-07-25T22:42:37.990Z,100.00
2022-07-25T22:45:06.697Z,100.00
2022-07-25T22:47:35.700Z,100.00
2022-07-25T22:50:03.327Z,100.00
2022-07-25T22:52:31.223Z,100.00
2022-07-25T22:54:58.831Z,100.00
2022-07-25T22:57:27.169Z,100.00
2022-07-25T22:59:54.773Z,100.00
2022-07-25T23:02:22.408Z,100.00
2022-07-25T23:04:51.347Z,100.00
2022-07-25T23:07:18.897Z,100.00
2022-07-25T23:09:46.479Z,100.00
2022-07-25T23:12:14.037Z,100.00
2022-07-25T23:14:41.635Z,100.00
2022-07-25T23:17:18.072Z,100.00
2022-07-25T23:19:46.462Z,100.00
2022-07-25T23:22:15.582Z,100.00
2022-07-25T23:24:43.203Z,100.00
2022-07-25T23:27:11.341Z,100.00
2022-07-25T23:29:39.186Z,100.00
2022-07-25T23:32:07.415Z,100.00
2022-07-25T23:34:35.355Z,100.00
2022-07-25T23:37:03.523Z,100.00
2022-07-25T23:39:33.438Z,100.00
2022-07-25T23:42:01.640Z,100.00
2022-07-25T23:44:29.640Z,100.00
2022-07-25T23:46:59.835Z,100.00
2022-07-25T23:49:29.214Z,100.00
2022-07-25T23:51:57.506Z,100.00
2022-07-25T23:54:25.694Z,100.00
2022-07-25T23:56:54.723Z,100.00
2022-07-25T23:59:22.485Z,100.00
